createdAt,value
2022-11-13T00:02:44.959Z,6.71
2022-11-13T00:08:07.982Z,6.58
2022-11-13T00:13:30.702Z,6.80
2022-11-13T00:18:55.340Z,6.90
2022-11-13T00:24:17.843Z,6.89
2022-11-13T00:29:39.298Z,6.86
2022-11-13T00:35:00.573Z,6.83
2022-11-13T00:46:57.247Z,6.99
2022-11-13T00:52:19.095Z,6.85
2022-11-13T00:57:42.104Z,6.88
2022-11-13T01:03:03.609Z,6.77
2022-11-13T01:08:25.303Z,6.65
2022-11-13T01:13:50.129Z,6.59
2022-11-13T01:19:11.365Z,6.52
2022-11-13T01:24:32.640Z,6.61
2022-11-13T01:29:55.488Z,6.55
2022-11-13T01:35:17.400Z,6.71
2022-11-13T01:40:46.393Z,6.74
2022-11-13T01:46:17.105Z,6.59
2022-11-13T01:51:42.002Z,6.55
2022-11-13T01:57:05.350Z,6.58
2022-11-13T02:02:27.990Z,6.58
2022-11-13T02:07:50.215Z,6.78
2022-11-13T02:13:13.524Z,6.74
2022-11-13T02:18:38.558Z,6.76
2022-11-13T02:24:14.792Z,6.73
2022-11-13T02:29:36.164Z,6.71
2022-11-13T02:34:57.214Z,6.69
2022-11-13T02:40:20.258Z,6.60
2022-11-13T02:45:41.708Z,6.43
2022-11-13T02:51:03.228Z,6.40
2022-11-13T02:56:26.279Z,6.41
2022-11-13T03:01:48.066Z,6.42
2022-11-13T03:07:09.766Z,6.48
2022-11-13T03:12:32.253Z,6.56
2022-11-13T03:17:53.409Z,6.75
2022-11-13T03:23:14.774Z,6.73
2022-11-13T03:28:38.060Z,6.60
2022-11-13T03:34:00.170Z,6.59
2022-11-13T03:39:21.641Z,6.71
2022-11-13T03:44:44.490Z,6.65
2022-11-13T03:50:06.473Z,6.88
2022-11-13T03:55:27.852Z,6.77
2022-11-13T04:00:50.637Z,6.73
2022-11-13T04:06:11.944Z,6.67
2022-11-13T04:11:33.138Z,6.61
2022-11-13T04:16:55.707Z,6.54
2022-11-13T04:22:16.949Z,6.58
2022-11-13T04:27:38.387Z,6.55
2022-11-13T04:33:01.155Z,6.51
2022-11-13T04:38:22.330Z,6.42
2022-11-13T04:43:43.773Z,6.37
2022-11-13T04:49:06.380Z,6.27
2022-11-13T04:54:29.013Z,6.06
2022-11-13T04:59:50.458Z,6.21
2022-11-13T05:05:13.085Z,6.29
2022-11-13T05:10:34.643Z,6.17
2022-11-13T05:16:01.519Z,5.95
2022-11-13T05:21:24.225Z,6.03
2022-11-13T05:26:45.480Z,6.02
2022-11-13T05:32:06.714Z,5.93
2022-11-13T05:37:30.140Z,5.82
2022-11-13T05:42:51.306Z,5.81
2022-11-13T05:48:14.100Z,5.81
2022-11-13T05:53:38.260Z,5.68
2022-11-13T05:59:01.460Z,5.59
2022-11-13T06:04:22.895Z,5.69
2022-11-13T06:09:48.466Z,5.62
2022-11-13T06:15:10.455Z,5.72
2022-11-13T06:20:31.989Z,5.84
2022-11-13T06:26:01.347Z,5.79
2022-11-13T06:31:24.837Z,5.85
2022-11-13T06:36:46.138Z,5.74
2022-11-13T06:42:08.664Z,5.71
2022-11-13T06:47:29.861Z,5.66
2022-11-13T06:52:51.209Z,5.81
2022-11-13T06:58:13.889Z,5.87
2022-11-13T07:03:35.922Z,5.83
2022-11-13T07:08:57.128Z,5.91
2022-11-13T07:14:19.682Z,5.93
2022-11-13T07:19:41.352Z,6.00
2022-11-13T07:25:02.493Z,6.06
2022-11-13T07:30:25.551Z,6.15
2022-11-13T07:35:46.714Z,6.04
2022-11-13T07:41:08.574Z,6.21
2022-11-13T07:46:31.415Z,6.24
2022-11-13T07:51:52.577Z,6.22
2022-11-13T07:57:14.709Z,6.14
2022-11-13T08:02:37.402Z,6.26
2022-11-13T08:07:58.565Z,6.19
2022-11-13T08:13:19.780Z,6.33
2022-11-13T08:18:42.635Z,6.40
2022-11-13T08:24:03.682Z,6.51
2022-11-13T08:29:25.215Z,6.71
2022-11-13T08:34:48.110Z,6.69
2022-11-13T08:40:10.670Z,6.62
2022-11-13T08:45:32.685Z,6.76
2022-11-13T08:50:56.743Z,6.78
2022-11-13T08:56:18.292Z,6.81
2022-11-13T09:01:39.433Z,6.99
2022-11-13T09:07:01.913Z,7.23
2022-11-13T09:12:23.528Z,7.12
2022-11-13T09:17:48.961Z,7.04
2022-11-13T09:23:11.751Z,7.33
2022-11-13T09:28:35.446Z,7.47
2022-11-13T09:33:56.725Z,7.63
2022-11-13T09:39:19.318Z,7.92
2022-11-13T09:44:44.417Z,8.08
2022-11-13T09:50:18.045Z,8.03
2022-11-13T09:55:49.759Z,8.19
2022-11-13T10:01:17.281Z,8.23
2022-11-13T10:07:12.565Z,8.09
2022-11-13T10:12:35.973Z,8.24
2022-11-13T10:18:04.039Z,8.21
2022-11-13T10:23:29.550Z,8.24
2022-11-13T10:28:59.852Z,8.40
2022-11-13T10:34:21.679Z,8.34
2022-11-13T10:39:44.506Z,8.29
2022-11-13T10:45:15.857Z,8.30
2022-11-13T10:50:37.288Z,8.62
2022-11-13T10:56:00.574Z,8.45
2022-11-13T11:01:27.545Z,8.55
2022-11-13T11:07:18.518Z,8.59
2022-11-13T11:12:31.452Z,8.57
2022-11-13T11:18:01.189Z,8.46
2022-11-13T11:23:28.350Z,8.26
2022-11-13T11:28:55.165Z,8.44
2022-11-13T11:34:23.252Z,8.40
2022-11-13T11:39:51.305Z,8.39
2022-11-13T11:45:17.924Z,8.45
2022-11-13T11:50:51.981Z,8.47
2022-11-13T11:56:28.505Z,8.71
2022-11-13T12:02:34.983Z,8.71
2022-11-13T12:08:14.027Z,8.91
2022-11-13T12:13:41.072Z,8.84
2022-11-13T12:19:09.048Z,8.57
2022-11-13T12:24:47.536Z,8.67
2022-11-13T12:30:17.516Z,8.54
2022-11-13T12:35:39.772Z,8.69
2022-11-13T12:41:10.709Z,8.84
2022-11-13T12:46:37.467Z,8.91
2022-11-13T12:52:00.408Z,8.91
2022-11-13T12:57:30.302Z,8.99
2022-11-13T13:02:59.894Z,9.19
2022-11-13T13:08:39.795Z,8.93
2022-11-13T13:14:25.039Z,9.15
2022-11-13T13:19:46.552Z,9.41
2022-11-13T13:25:23.786Z,9.40
2022-11-13T13:30:55.291Z,9.48
2022-11-13T13:36:30.691Z,9.37
2022-11-13T13:42:18.202Z,9.37
2022-11-13T13:47:44.397Z,9.18
2022-11-13T13:53:06.544Z,9.13
2022-11-13T13:58:31.393Z,9.07
2022-11-13T14:04:06.665Z,9.22
2022-11-13T14:09:29.657Z,9.17
2022-11-13T14:14:50.915Z,9.21
2022-11-13T14:20:14.420Z,9.07
2022-11-13T14:25:36.027Z,8.99
2022-11-13T14:31:00.855Z,9.03
2022-11-13T14:36:31.566Z,9.19
2022-11-13T14:41:56.034Z,9.31
2022-11-13T14:47:27.327Z,9.19
2022-11-13T14:52:59.732Z,9.08
2022-11-13T14:58:28.750Z,8.97
2022-11-13T15:03:52.152Z,8.80
2022-11-13T15:09:18.666Z,8.90
2022-11-13T15:14:42.299Z,8.91
2022-11-13T15:20:09.298Z,8.90
2022-11-13T15:25:32.065Z,8.88
2022-11-13T15:30:53.459Z,8.93
2022-11-13T15:36:15.026Z,8.94
2022-11-13T15:41:38.094Z,8.97
2022-11-13T15:46:59.239Z,8.73
2022-11-13T15:52:21.069Z,8.87
2022-11-13T15:57:44.080Z,8.96
2022-11-13T16:03:11.396Z,9.13
2022-11-13T16:08:32.847Z,9.11
2022-11-13T16:13:55.405Z,9.09
2022-11-13T16:19:23.505Z,9.09
2022-11-13T16:24:45.234Z,9.15
2022-11-13T16:30:14.760Z,9.15
2022-11-13T16:35:37.079Z,9.22
2022-11-13T16:40:58.819Z,9.22
2022-11-13T16:46:27.633Z,9.26
2022-11-13T16:51:49.432Z,9.16
2022-11-13T16:57:13.849Z,9.25
2022-11-13T17:02:36.731Z,9.31
2022-11-13T17:08:01.788Z,9.33
2022-11-13T17:13:23.649Z,9.36
2022-11-13T17:19:16.330Z,9.32
2022-11-13T17:24:38.164Z,9.43
2022-11-13T17:30:00.939Z,9.50
2022-11-13T17:35:23.575Z,9.51
2022-11-13T17:40:45.002Z,9.44
2022-11-13T17:46:07.405Z,9.37
2022-11-13T17:51:30.477Z,9.54
2022-11-13T17:56:51.943Z,9.53
2022-11-13T18:02:13.322Z,9.42
2022-11-13T18:07:36.161Z,9.44
2022-11-13T18:12:57.248Z,9.50
2022-11-13T18:18:18.700Z,9.63
2022-11-13T18:23:42.597Z,9.65
2022-11-13T18:29:04.918Z,9.69
2022-11-13T18:34:28.437Z,9.70
2022-11-13T18:39:51.680Z,9.70
2022-11-13T18:45:16.223Z,9.69
2022-11-13T18:50:37.779Z,9.62
2022-11-13T18:56:02.073Z,9.73
2022-11-13T19:01:25.752Z,9.73
2022-11-13T19:06:47.410Z,9.76
2022-11-13T19:12:10.295Z,9.83
2022-11-13T19:17:31.902Z,9.81
2022-11-13T19:22:53.300Z,9.76
2022-11-13T19:28:17.329Z,9.70
2022-11-13T19:33:42.267Z,9.76
2022-11-13T19:39:04.317Z,9.61
2022-11-13T19:44:27.778Z,9.76
2022-11-13T19:49:49.559Z,9.67
2022-11-13T19:55:13.198Z,9.60
2022-11-13T20:00:36.971Z,9.57
2022-11-13T20:05:59.326Z,9.70
2022-11-13T20:11:20.892Z,9.79
2022-11-13T20:16:44.001Z,9.58
2022-11-13T20:22:05.265Z,9.73
2022-11-13T20:27:26.597Z,9.74
2022-11-13T20:32:52.560Z,9.74
2022-11-13T20:38:17.669Z,9.82
2022-11-13T20:43:38.926Z,9.83
2022-11-13T20:49:02.139Z,9.78
2022-11-13T20:54:23.849Z,9.79
2022-11-13T20:59:45.376Z,9.69
2022-11-13T21:05:08.756Z,9.78
2022-11-13T21:10:30.227Z,9.73
2022-11-13T21:15:56.000Z,9.77
2022-11-13T21:21:20.592Z,9.64
2022-11-13T21:26:41.952Z,9.60
2022-11-13T21:32:03.418Z,9.47
2022-11-13T21:37:26.634Z,9.50
2022-11-13T21:42:48.080Z,9.50
2022-11-13T21:48:09.558Z,9.52
2022-11-13T21:53:32.288Z,9.36
2022-11-13T21:58:55.737Z,9.24
2022-11-13T22:04:17.372Z,9.16
2022-11-13T22:09:40.185Z,9.18
2022-11-13T22:15:01.805Z,9.06
2022-11-13T22:20:23.079Z,9.12
2022-11-13T22:25:46.035Z,9.19
2022-11-13T22:31:09.345Z,9.11
2022-11-13T22:36:31.857Z,8.91
2022-11-13T22:41:54.692Z,8.80
2022-11-13T22:47:15.932Z,8.84
2022-11-13T22:52:37.140Z,8.81
2022-11-13T22:58:00.705Z,8.90
2022-11-13T23:03:22.056Z,8.89
2022-11-13T23:08:43.951Z,8.73
2022-11-13T23:14:09.148Z,8.73
2022-11-13T23:19:30.402Z,8.54
2022-11-13T23:24:51.563Z,8.57
2022-11-13T23:30:15.466Z,8.47
2022-11-13T23:35:36.953Z,8.65
2022-11-13T23:40:59.778Z,8.45
2022-11-13T23:46:22.263Z,8.36
2022-11-13T23:51:43.502Z,8.40
2022-11-13T23:57:04.805Z,8.38
